Time;durP1;ratioP1;P1;durP2;ratioP2;P2;SDS_P1;SDS_P2;PMS_P1;PMS_P2;Temp;Humidity;BMP_temperature;BMP_pressure;BME280_temperature;BME280_humidity;BME280_pressure;Samples;Min_cycle;Max_cycle;Signal;HPM_P1;HPM_P2
2023/09/18 00:00:26;;;;;;;2.83;2.60;;;28.10;47.70;;;;;;5013912;28;20059;-72
2023/09/18 00:02:52;;;;;;;3.30;2.60;;;28.30;47.70;;;;;;5012427;28;20113;-72
2023/09/18 00:05:18;;;;;;;3.00;2.70;;;28.10;47.60;;;;;;5013654;28;20021;-72
2023/09/18 00:07:45;;;;;;;3.05;2.67;;;28.10;47.70;;;;;;5014047;28;20088;-72
2023/09/18 00:10:11;;;;;;;3.05;2.80;;;28.20;47.70;;;;;;5012221;28;20402;-72
2023/09/18 00:12:38;;;;;;;3.05;2.75;;;28.30;47.80;;;;;;5012112;28;20038;-72
2023/09/18 00:15:05;;;;;;;3.55;2.60;;;28.20;47.70;;;;;;5013451;28;20084;-72
2023/09/18 00:17:31;;;;;;;3.67;2.63;;;28.10;47.80;;;;;;5013408;28;20073;-72
2023/09/18 00:19:57;;;;;;;3.30;2.65;;;28.10;47.90;;;;;;5013290;28;20033;-72
2023/09/18 00:22:24;;;;;;;4.65;2.88;;;28.30;48.00;;;;;;5010479;28;20081;-72
2023/09/18 00:24:50;;;;;;;3.10;2.75;;;28.10;48.00;;;;;;5010746;28;20052;-72
2023/09/18 00:27:16;;;;;;;4.18;2.42;;;28.20;48.00;;;;;;5010648;28;20042;-72
2023/09/18 00:29:42;;;;;;;3.47;2.83;;;28.10;48.10;;;;;;5010873;28;20173;-72
2023/09/18 00:32:08;;;;;;;11.32;3.20;;;28.20;48.10;;;;;;5010615;28;20044;-72
2023/09/18 00:34:34;;;;;;;3.10;2.40;;;28.10;48.20;;;;;;5010555;28;20053;-72
2023/09/18 00:37:00;;;;;;;4.47;2.60;;;28.00;48.20;;;;;;5010167;28;20058;-72
2023/09/18 00:39:27;;;;;;;4.20;2.90;;;28.10;48.20;;;;;;4994219;28;20088;-72
2023/09/18 00:41:54;;;;;;;3.67;2.75;;;28.10;48.20;;;;;;4994082;28;20053;-72
2023/09/18 00:44:23;;;;;;;2.92;2.50;;;28.10;48.30;;;;;;5010448;28;20041;-72
2023/09/18 00:46:51;;;;;;;3.95;2.35;;;28.30;48.30;;;;;;4993953;28;20049;-72
2023/09/18 00:49:18;;;;;;;2.92;2.58;;;28.20;48.30;;;;;;5010474;28;20112;-72
2023/09/18 00:51:45;;;;;;;3.00;2.70;;;28.10;48.30;;;;;;5010324;28;20600;-72
2023/09/18 00:54:11;;;;;;;4.35;3.00;;;28.10;48.30;;;;;;4993799;28;20066;-72
2023/09/18 00:56:37;;;;;;;4.15;2.88;;;28.20;48.30;;;;;;4990055;28;20050;-73
2023/09/18 00:59:04;;;;;;;3.45;2.47;;;28.20;48.30;;;;;;4974403;28;20034;-72
2023/09/18 01:01:32;;;;;;;2.67;2.47;;;28.10;48.40;;;;;;4990679;28;20045;-72
2023/09/18 01:03:58;;;;;;;3.80;2.80;;;28.00;48.40;;;;;;4990421;28;20070;-72
2023/09/18 01:06:30;;;;;;;2.47;2.28;;;28.10;48.40;;;;;;4990438;28;20042;-71
2023/09/18 01:08:56;;;;;;;3.42;2.67;;;28.00;48.40;;;;;;5005736;28;20096;-72
2023/09/18 01:11:38;;;;;;;4.53;2.60;;;28.00;48.40;;;;;;4991976;28;20100;-71
2023/09/18 01:14:16;;;;;;;4.95;2.45;;;28.00;48.50;;;;;;4992569;28;20034;-72
2023/09/18 01:16:58;;;;;;;4.15;2.55;;;28.10;48.60;;;;;;5007737;28;20450;-71
2023/09/18 01:19:45;;;;;;;5.00;2.67;;;28.10;48.70;;;;;;4991375;28;20470;-72
2023/09/18 01:22:19;;;;;;;2.88;2.45;;;28.10;48.70;;;;;;5007385;28;20082;-70
2023/09/18 01:24:49;;;;;;;5.55;2.85;;;28.10;48.80;;;;;;4991532;28;20367;-71
2023/09/18 01:27:18;;;;;;;3.72;2.47;;;28.00;48.80;;;;;;4992199;28;20149;-71
2023/09/18 01:29:45;;;;;;;3.08;2.78;;;27.90;48.30;;;;;;4975215;28;20394;-71
2023/09/18 01:32:11;;;;;;;4.10;2.65;;;28.10;48.90;;;;;;5007700;28;20105;-72
2023/09/18 01:34:49;;;;;;;3.13;2.70;;;28.10;48.90;;;;;;4992402;28;20033;-72
2023/09/18 01:37:26;;;;;;;3.33;2.70;;;28.10;48.90;;;;;;4992394;28;20070;-71
2023/09/18 01:39:53;;;;;;;2.60;2.35;;;28.10;49.00;;;;;;4991256;28;20581;-71
2023/09/18 01:42:20;;;;;;;4.63;2.92;;;28.10;49.00;;;;;;4993219;28;20042;-71
2023/09/18 01:44:47;;;;;;;4.05;3.10;;;28.10;49.10;;;;;;4974868;28;20139;-72
2023/09/18 01:47:18;;;;;;;2.33;2.13;;;28.10;49.10;;;;;;4990996;28;20041;-71
2023/09/18 01:49:46;;;;;;;4.63;2.58;;;28.10;49.10;;;;;;4990954;28;20033;-72
2023/09/18 01:52:13;;;;;;;2.80;2.53;;;28.10;49.10;;;;;;5000194;28;20441;-71
2023/09/18 01:54:39;;;;;;;4.53;3.13;;;28.00;49.10;;;;;;5010352;28;20029;-71
2023/09/18 01:57:07;;;;;;;5.25;2.60;;;28.10;49.10;;;;;;4994386;28;20037;-72
2023/09/18 01:59:34;;;;;;;8.43;3.05;;;28.10;49.20;;;;;;5010550;28;20044;-71
2023/09/18 02:02:03;;;;;;;3.00;2.70;;;28.00;49.20;;;;;;4994491;28;20390;-72
2023/09/18 02:04:29;;;;;;;4.40;3.50;;;27.90;48.70;;;;;;5010301;28;20065;-72
2023/09/18 02:06:57;;;;;;;4.88;3.08;;;28.00;49.30;;;;;;4994153;28;20046;-72
2023/09/18 02:09:23;;;;;;;4.63;3.22;;;28.00;49.20;;;;;;5011515;28;20037;-71
2023/09/18 02:11:49;;;;;;;2.75;2.47;;;28.00;49.20;;;;;;4993910;28;20045;-72
2023/09/18 02:14:15;;;;;;;4.45;2.47;;;28.00;49.40;;;;;;5010205;28;20115;-71
2023/09/18 02:16:43;;;;;;;2.97;2.67;;;27.90;48.80;;;;;;5009993;28;20034;-72
2023/09/18 02:19:11;;;;;;;3.47;2.80;;;27.90;48.90;;;;;;5010122;28;20490;-72
2023/09/18 02:21:37;;;;;;;2.65;2.45;;;28.00;49.40;;;;;;5011218;28;20060;-71
2023/09/18 02:24:05;;;;;;;5.03;3.20;;;27.90;48.90;;;;;;5009916;28;20407;-71
2023/09/18 02:26:31;;;;;;;4.07;3.05;;;27.90;49.00;;;;;;5011405;28;20026;-71
2023/09/18 02:29:05;;;;;;;3.00;2.70;;;27.90;49.00;;;;;;5010394;28;20125;-72
2023/09/18 02:31:31;;;;;;;3.88;3.17;;;28.00;49.50;;;;;;4993755;28;20474;-71
2023/09/18 02:33:58;;;;;;;5.43;3.25;;;27.90;49.10;;;;;;5011261;28;20517;-71
2023/09/18 02:36:23;;;;;;;3.22;2.92;;;28.00;49.60;;;;;;5015261;28;20065;-71
2023/09/18 02:38:49;;;;;;;3.38;2.78;;;27.90;49.10;;;;;;5014205;28;20093;-71
2023/09/18 02:41:15;;;;;;;3.00;2.75;;;28.10;49.60;;;;;;5015229;28;20160;-72
2023/09/18 02:43:41;;;;;;;3.63;2.90;;;27.90;49.10;;;;;;5015113;28;20038;-71
2023/09/18 02:46:08;;;;;;;4.00;2.83;;;27.90;49.10;;;;;;5015293;28;20030;-71
2023/09/18 02:48:35;;;;;;;3.60;2.63;;;27.90;49.10;;;;;;5014361;28;20042;-72
2023/09/18 02:51:02;;;;;;;6.50;3.10;;;27.90;49.10;;;;;;5013234;28;20483;-71
2023/09/18 02:53:28;;;;;;;4.15;2.58;;;28.00;49.70;;;;;;5013830;28;20101;-72
2023/09/18 02:55:58;;;;;;;4.78;3.00;;;27.80;49.10;;;;;;5013927;28;20537;-71
2023/09/18 02:58:29;;;;;;;3.38;2.78;;;27.90;49.10;;;;;;5013653;28;20069;-71
2023/09/18 03:00:58;;;;;;;3.10;2.80;;;27.90;49.10;;;;;;5013905;28;20116;-71
2023/09/18 03:03:24;;;;;;;8.07;3.35;;;28.00;49.70;;;;;;5013437;28;20025;-72
2023/09/18 03:05:51;;;;;;;8.15;2.90;;;27.90;49.10;;;;;;5013769;28;20038;-71
2023/09/18 03:08:17;;;;;;;3.42;2.47;;;27.80;49.10;;;;;;4997376;28;20511;-71
2023/09/18 03:10:44;;;;;;;2.75;2.42;;;27.80;49.20;;;;;;5014702;28;20038;-70
2023/09/18 03:13:12;;;;;;;4.95;3.50;;;27.80;49.30;;;;;;5013343;28;20037;-72
2023/09/18 03:15:39;;;;;;;4.32;2.63;;;27.80;49.30;;;;;;5015164;28;20362;-71
2023/09/18 03:18:07;;;;;;;3.00;2.70;;;27.80;49.30;;;;;;5015367;28;20551;-71
2023/09/18 03:20:33;;;;;;;4.40;2.78;;;27.90;49.30;;;;;;4998697;28;20148;-71
2023/09/18 03:23:01;;;;;;;4.25;3.15;;;27.80;49.30;;;;;;5015334;28;20856;-71
2023/09/18 03:25:28;;;;;;;5.72;2.70;;;27.90;49.40;;;;;;5011639;28;20049;-72
2023/09/18 03:27:55;;;;;;;5.50;2.78;;;28.00;50.00;;;;;;5011890;28;20038;-71
2023/09/18 03:30:25;;;;;;;4.25;2.38;;;27.80;49.40;;;;;;4995598;28;20048;-72
2023/09/18 03:32:52;;;;;;;3.70;3.30;;;27.80;49.40;;;;;;4995616;28;20050;-71
2023/09/18 03:35:20;;;;;;;3.05;2.30;;;27.80;49.50;;;;;;4956261;28;20043;-72
2023/09/18 03:37:52;;;;;;;3.17;2.80;;;27.90;49.50;;;;;;4972630;28;20091;-71
2023/09/18 03:40:19;;;;;;;5.60;2.85;;;27.90;49.50;;;;;;4972772;28;20502;-72
2023/09/18 03:42:47;;;;;;;5.07;2.90;;;28.00;50.00;;;;;;4956750;28;20035;-71
2023/09/18 03:45:13;;;;;;;3.55;2.72;;;27.90;49.40;;;;;;4956736;28;20450;-71
2023/09/18 03:47:41;;;;;;;4.20;2.72;;;28.00;50.00;;;;;;4971621;28;20042;-72
2023/09/18 03:50:11;;;;;;;3.60;3.20;;;27.90;49.40;;;;;;4974650;28;20054;-72
2023/09/18 03:52:38;;;;;;;3.50;2.70;;;27.90;49.40;;;;;;4953211;29;20070;-72
2023/09/18 03:55:05;;;;;;;3.17;2.70;;;27.70;49.40;;;;;;4953449;29;20047;-71
2023/09/18 03:57:32;;;;;;;3.33;2.70;;;27.90;49.40;;;;;;4951642;29;20106;-71
2023/09/18 03:59:58;;;;;;;3.03;2.58;;;27.90;49.40;;;;;;4953072;28;20444;-72
2023/09/18 04:02:25;;;;;;;2.78;2.33;;;27.90;49.40;;;;;;4956114;28;20054;-69
2023/09/18 04:04:53;;;;;;;1.90;1.70;;;27.90;49.50;;;;;;4971981;28;20085;-69
2023/09/18 04:07:20;;;;;;;2.40;1.85;;;27.80;49.50;;;;;;4975237;28;20081;-69
2023/09/18 04:09:46;;;;;;;2.85;2.28;;;27.80;50.00;;;;;;4991584;28;20379;-69
2023/09/18 04:12:12;;;;;;;2.90;2.70;;;28.10;51.80;;;;;;4991774;28;20054;-70
2023/09/18 04:14:39;;;;;;;4.13;2.50;;;28.10;49.50;;;;;;4975111;28;20045;-68
2023/09/18 04:17:05;;;;;;;4.70;3.67;;;28.30;48.50;;;;;;4991485;28;20088;-69
2023/09/18 04:19:32;;;;;;;4.53;3.58;;;28.20;47.00;;;;;;4975013;28;20076;-68
2023/09/18 04:21:58;;;;;;;4.65;4.05;;;28.30;47.80;;;;;;4975120;28;20112;-68
2023/09/18 04:24:25;;;;;;;3.92;3.50;;;28.20;45.90;;;;;;4974872;28;20034;-69
2023/09/18 04:26:51;;;;;;;5.47;4.05;;;28.10;45.60;;;;;;4975155;28;20117;-70
2023/09/18 04:29:18;;;;;;;4.72;4.20;;;28.20;45.70;;;;;;4991188;28;20129;-69
2023/09/18 04:31:44;;;;;;;6.13;4.95;;;28.10;47.40;;;;;;4991456;28;20057;-69
2023/09/18 04:34:11;;;;;;;7.22;5.18;;;28.10;46.70;;;;;;4975490;28;20072;-68
2023/09/18 04:36:37;;;;;;;4.18;3.60;;;28.10;45.90;;;;;;4992122;28;20434;-69
2023/09/18 04:39:05;;;;;;;4.50;4.03;;;28.10;45.80;;;;;;5008831;28;20038;-69
2023/09/18 04:41:32;;;;;;;5.85;5.28;;;28.10;48.00;;;;;;4992217;28;20080;-69
2023/09/18 04:43:59;;;;;;;7.60;4.80;;;28.00;46.80;;;;;;4992130;28;20061;-69
2023/09/18 04:46:26;;;;;;;5.90;4.50;;;28.20;46.10;;;;;;4991948;28;20030;-70
2023/09/18 04:48:52;;;;;;;4.60;2.42;;;28.20;49.30;;;;;;4995405;28;20029;-70
2023/09/18 04:51:18;;;;;;;2.50;2.30;;;28.30;50.20;;;;;;5011557;28;20347;-70
2023/09/18 04:53:44;;;;;;;4.38;2.95;;;28.30;49.40;;;;;;4993805;28;20041;-70
2023/09/18 04:56:11;;;;;;;2.97;2.67;;;28.30;50.20;;;;;;4993751;28;20060;-71
2023/09/18 04:58:37;;;;;;;3.03;2.30;;;28.20;49.90;;;;;;4993944;28;20046;-70
2023/09/18 05:01:07;;;;;;;3.35;3.05;;;28.30;50.50;;;;;;5010257;28;20041;-72
2023/09/18 05:03:36;;;;;;;6.22;3.97;;;28.40;50.50;;;;;;4994104;28;20033;-72
2023/09/18 05:06:04;;;;;;;9.05;3.58;;;28.30;49.40;;;;;;4979768;28;20035;-74
2023/09/18 05:08:31;;;;;;;6.35;3.67;;;28.20;48.30;;;;;;4990512;28;20474;-71
2023/09/18 05:10:57;;;;;;;6.28;3.65;;;28.10;50.50;;;;;;4990864;28;20038;-74
2023/09/18 05:13:23;;;;;;;8.77;4.10;;;28.30;48.60;;;;;;4990916;28;20057;-74
2023/09/18 05:15:49;;;;;;;10.50;4.60;;;28.30;48.50;;;;;;4990845;28;20539;-75
2023/09/18 05:18:16;;;;;;;6.97;4.32;;;28.20;48.60;;;;;;4990609;28;20045;-74
2023/09/18 05:20:42;;;;;;;7.32;4.10;;;28.20;48.60;;;;;;4990249;28;20046;-74
2023/09/18 05:23:08;;;;;;;10.73;3.92;;;28.20;48.70;;;;;;4974047;28;20438;-74
2023/09/18 05:25:37;;;;;;;7.50;4.57;;;28.10;48.90;;;;;;4992450;28;20054;-73
2023/09/18 05:28:05;;;;;;;7.55;4.18;;;28.10;49.00;;;;;;4992974;28;20022;-74
2023/09/18 05:30:38;;;;;;;9.15;4.47;;;28.20;49.10;;;;;;4991858;28;20030;-75
2023/09/18 05:33:06;;;;;;;5.57;4.80;;;28.20;49.10;;;;;;4992028;28;20030;-73
2023/09/18 05:35:39;;;;;;;7.47;4.25;;;28.20;49.20;;;;;;5001494;28;20034;-69
2023/09/18 05:38:05;;;;;;;7.25;4.05;;;28.30;49.30;;;;;;5010937;28;20029;-70
2023/09/18 05:40:32;;;;;;;5.88;4.03;;;28.30;49.30;;;;;;5012183;28;20097;-69
2023/09/18 05:42:58;;;;;;;6.80;4.18;;;28.20;49.50;;;;;;4994149;28;20038;-70
2023/09/18 05:45:26;;;;;;;5.85;4.15;;;28.10;49.60;;;;;;4992281;28;20026;-69
2023/09/18 05:47:53;;;;;;;5.65;3.75;;;28.20;49.60;;;;;;4999229;28;20036;-70
2023/09/18 05:50:19;;;;;;;5.22;3.63;;;28.30;49.70;;;;;;5003797;28;20022;-69
2023/09/18 05:52:47;;;;;;;10.50;3.33;;;28.40;52.00;;;;;;4992444;28;20466;-69
2023/09/18 05:55:16;;;;;;;3.72;3.22;;;28.60;50.80;;;;;;4992088;28;20129;-73
2023/09/18 05:57:42;;;;;;;7.47;4.72;;;28.90;51.00;;;;;;4998921;28;20034;-69
2023/09/18 06:00:12;;;;;;;11.15;4.82;;;29.00;52.00;;;;;;5011616;28;20109;-70
2023/09/18 06:02:40;;;;;;;10.23;5.00;;;28.90;49.80;;;;;;5011739;28;20034;-70
2023/09/18 06:05:06;;;;;;;15.13;4.57;;;28.70;49.60;;;;;;5011669;28;20036;-70
2023/09/18 06:07:32;;;;;;;8.68;4.28;;;28.70;49.60;;;;;;5002217;28;20538;-70
2023/09/18 06:09:59;;;;;;;9.35;4.78;;;28.70;49.50;;;;;;4990229;28;20074;-72
2023/09/18 06:12:25;;;;;;;9.90;4.60;;;28.60;49.40;;;;;;4991880;28;20136;-71
2023/09/18 06:14:52;;;;;;;6.20;4.35;;;28.70;49.30;;;;;;4990350;28;20038;-72
2023/09/18 06:17:18;;;;;;;8.23;5.03;;;28.60;49.20;;;;;;4991875;28;20053;-72
2023/09/18 06:19:47;;;;;;;8.02;4.38;;;28.60;49.20;;;;;;4992051;28;20121;-72
2023/09/18 06:22:14;;;;;;;6.85;4.32;;;28.60;49.40;;;;;;4992042;28;20054;-69
2023/09/18 06:24:40;;;;;;;5.05;3.75;;;28.60;49.40;;;;;;4991875;28;20381;-70
2023/09/18 06:27:06;;;;;;;5.00;2.55;;;28.50;49.50;;;;;;4991685;28;20042;-70
2023/09/18 06:29:34;;;;;;;9.23;3.28;;;28.60;49.40;;;;;;4990411;28;20491;-71
2023/09/18 06:32:00;;;;;;;8.38;4.60;;;28.60;49.40;;;;;;4991421;28;20419;-71
2023/09/18 06:34:28;;;;;;;4.03;2.70;;;28.60;49.60;;;;;;4991616;28;20431;-70
2023/09/18 06:36:54;;;;;;;7.53;4.22;;;28.70;50.60;;;;;;4991597;28;20062;-70
2023/09/18 06:39:22;;;;;;;4.65;2.67;;;29.10;58.10;;;;;;4990318;28;20038;-70
2023/09/18 06:41:48;;;;;;;3.22;2.92;;;30.00;56.20;;;;;;5001810;28;20405;-71
2023/09/18 06:44:14;;;;;;;3.78;2.80;;;30.10;53.10;;;;;;5009265;28;20045;-72
2023/09/18 06:46:40;;;;;;;5.88;3.05;;;30.20;51.10;;;;;;4992034;28;20030;-70
2023/09/18 06:49:06;;;;;;;3.25;2.50;;;29.90;49.60;;;;;;5010718;28;20490;-72
2023/09/18 06:51:32;;;;;;;3.17;2.85;;;29.80;49.20;;;;;;5010715;28;20037;-71
2023/09/18 06:53:58;;;;;;;5.85;2.88;;;29.70;48.80;;;;;;5010795;28;20042;-72
2023/09/18 06:56:24;;;;;;;8.68;3.28;;;29.50;48.80;;;;;;5010388;28;20034;-71
2023/09/18 06:58:51;;;;;;;3.05;2.75;;;29.50;48.00;;;;;;5009458;28;20034;-70
2023/09/18 07:01:19;;;;;;;5.15;3.00;;;29.60;48.50;;;;;;5010546;28;20092;-70
2023/09/18 07:03:46;;;;;;;4.70;3.25;;;29.50;47.90;;;;;;5010719;28;20435;-70
2023/09/18 07:06:15;;;;;;;5.85;3.22;;;29.60;51.30;;;;;;5009449;28;20047;-70
2023/09/18 07:08:43;;;;;;;6.50;3.10;;;29.60;64.70;;;;;;5010964;28;20042;-70
2023/09/18 07:11:09;;;;;;;9.43;4.03;;;29.60;50.50;;;;;;5010772;28;20034;-70
2023/09/18 07:13:35;;;;;;;15.85;3.75;;;29.60;49.30;;;;;;5011147;28;20115;-70
2023/09/18 07:16:03;;;;;;;6.07;3.38;;;29.60;49.20;;;;;;5010726;28;20470;-72
2023/09/18 07:18:29;;;;;;;6.75;3.28;;;29.50;56.30;;;;;;5010906;28;20061;-73
2023/09/18 07:20:55;;;;;;;5.30;3.28;;;29.50;53.60;;;;;;5010681;28;20092;-72
2023/09/18 07:23:21;;;;;;;5.82;2.92;;;29.50;57.00;;;;;;5014073;28;20034;-72
2023/09/18 07:25:49;;;;;;;7.10;3.58;;;29.60;51.30;;;;;;5014349;28;20498;-68
2023/09/18 07:28:17;;;;;;;9.30;2.88;;;29.50;53.60;;;;;;5014466;28;20040;-74
2023/09/18 07:30:48;;;;;;;5.40;2.95;;;29.60;47.80;;;;;;5014969;28;20118;-71
2023/09/18 07:33:19;;;;;;;6.57;3.10;;;29.50;47.30;;;;;;5014610;28;20112;-70
2023/09/18 07:35:51;;;;;;;5.15;3.30;;;29.50;46.70;;;;;;5013370;28;20034;-72
2023/09/18 07:38:19;;;;;;;5.35;3.70;;;29.40;46.40;;;;;;5013036;28;20038;-71
2023/09/18 07:40:47;;;;;;;3.85;3.10;;;29.50;46.40;;;;;;5011741;28;20109;-71
2023/09/18 07:43:13;;;;;;;4.45;3.10;;;29.50;47.50;;;;;;5013826;28;20486;-67
2023/09/18 07:45:39;;;;;;;7.40;3.35;;;29.50;48.60;;;;;;5013518;28;20037;-67
2023/09/18 07:48:07;;;;;;;5.10;3.35;;;29.60;51.60;;;;;;5013947;28;20547;-72
2023/09/18 07:50:36;;;;;;;4.97;3.10;;;29.30;43.00;;;;;;4996526;28;20045;-72
2023/09/18 07:53:03;;;;;;;4.40;3.08;;;29.40;46.60;;;;;;5014004;28;20058;-72
2023/09/18 07:55:29;;;;;;;6.25;2.70;;;29.40;41.30;;;;;;5014014;28;20163;-70
2023/09/18 07:57:56;;;;;;;7.35;2.80;;;29.30;39.40;;;;;;5012532;28;20107;-67
2023/09/18 08:00:22;;;;;;;4.10;2.60;;;29.30;42.50;;;;;;5007626;28;20018;-68
2023/09/18 08:02:50;;;;;;;4.55;3.55;;;29.20;41.00;;;;;;4994632;28;20471;-67
2023/09/18 08:05:17;;;;;;;5.57;3.67;;;29.20;42.40;;;;;;4994366;28;20146;-68
2023/09/18 08:07:43;;;;;;;6.45;3.17;;;29.40;44.10;;;;;;4994538;28;20030;-72
2023/09/18 08:10:09;;;;;;;4.30;2.70;;;29.30;44.10;;;;;;4994245;28;20040;-70
2023/09/18 08:12:36;;;;;;;4.57;2.70;;;29.20;43.80;;;;;;4994111;28;20164;-70
2023/09/18 08:15:02;;;;;;;7.07;3.20;;;29.10;43.20;;;;;;4994051;28;20045;-71
2023/09/18 08:17:31;;;;;;;10.68;8.40;;;29.20;43.00;;;;;;4992747;28;20817;-72
2023/09/18 08:19:58;;;;;;;4.47;2.85;;;29.20;51.00;;;;;;4993813;28;20455;-73
2023/09/18 08:22:24;;;;;;;6.88;2.88;;;29.20;51.90;;;;;;4994197;28;20117;-69
2023/09/18 08:24:52;;;;;;;6.18;3.05;;;29.30;46.00;;;;;;4993260;28;20041;-71
2023/09/18 08:27:19;;;;;;;3.83;3.15;;;29.20;44.00;;;;;;4993826;28;20030;-74
2023/09/18 08:29:46;;;;;;;2.63;2.00;;;29.20;42.60;;;;;;4992743;28;20125;-72
2023/09/18 08:32:12;;;;;;;3.58;3.28;;;29.10;40.50;;;;;;4993236;28;20490;-73
2023/09/18 08:34:38;;;;;;;3.50;3.00;;;29.10;41.60;;;;;;4993928;28;20435;-72
2023/09/18 08:37:04;;;;;;;4.47;2.75;;;29.10;41.10;;;;;;4993859;28;20081;-73
2023/09/18 08:39:32;;;;;;;4.93;3.28;;;29.00;40.80;;;;;;4993801;28;20050;-71
2023/09/18 08:42:03;;;;;;;5.22;3.50;;;29.10;39.90;;;;;;4993590;28;20030;-72
2023/09/18 08:44:30;;;;;;;6.60;3.17;;;29.00;39.80;;;;;;4993890;28;20068;-73
2023/09/18 08:46:57;;;;;;;7.57;2.90;;;29.00;40.30;;;;;;4993642;28;20027;-73
2023/09/18 08:49:24;;;;;;;8.30;4.60;;;29.10;40.80;;;;;;4993997;28;20034;-74
2023/09/18 08:51:53;;;;;;;78.53;49.22;;;29.20;39.10;;;;;;4993160;28;20060;-73
2023/09/18 08:54:20;;;;;;;14.20;9.38;;;29.20;39.20;;;;;;5012498;28;20034;-74
2023/09/18 08:56:46;;;;;;;7.07;4.57;;;29.30;36.80;;;;;;5012870;28;20041;-75
2023/09/18 08:59:13;;;;;;;4.85;3.50;;;29.20;37.00;;;;;;5012995;28;20034;-74
2023/09/18 09:01:39;;;;;;;10.93;4.65;;;29.10;37.70;;;;;;5012688;28;20038;-75
2023/09/18 09:04:05;;;;;;;6.32;4.57;;;29.20;37.90;;;;;;5012752;28;20095;-75
2023/09/18 09:06:31;;;;;;;6.65;3.83;;;29.30;37.20;;;;;;5012433;28;20421;-74
2023/09/18 09:08:57;;;;;;;5.22;3.85;;;29.10;37.70;;;;;;5012363;28;20038;-76
2023/09/18 09:11:23;;;;;;;4.95;3.20;;;29.20;37.60;;;;;;5011536;28;20120;-74
2023/09/18 09:14:17;;;;;;;4.63;3.45;;;29.10;37.60;;;;;;5012496;28;20095;-72
2023/09/18 09:16:50;;;;;;;5.22;3.65;;;29.10;37.90;;;;;;5012239;28;20136;-70
2023/09/18 09:19:17;;;;;;;7.55;4.00;;;29.10;38.00;;;;;;5012270;28;20022;-74
2023/09/18 09:21:44;;;;;;;4.25;3.50;;;29.10;38.10;;;;;;5012667;28;20172;-73
2023/09/18 09:24:14;;;;;;;6.72;3.95;;;29.10;38.00;;;;;;5012421;28;20033;-73
2023/09/18 09:26:42;;;;;;;6.35;3.63;;;29.10;38.10;;;;;;5012275;28;20038;-72
2023/09/18 09:29:19;;;;;;;7.40;3.83;;;29.20;39.40;;;;;;5012338;28;20033;-73
2023/09/18 09:31:46;;;;;;;12.57;3.90;;;29.20;39.10;;;;;;5011195;28;20034;-74
2023/09/18 09:34:23;;;;;;;2.45;2.03;;;29.30;38.60;;;;;;5009835;28;20083;-75
2023/09/18 09:36:54;;;;;;;8.05;4.05;;;29.30;41.60;;;;;;5007758;28;20041;-73
2023/09/18 09:39:24;;;;;;;4.53;3.78;;;29.30;40.00;;;;;;5012026;28;20121;-73
2023/09/18 09:41:53;;;;;;;5.68;3.33;;;29.40;39.20;;;;;;5011903;28;20351;-76
2023/09/18 09:44:20;;;;;;;3.50;3.20;;;29.30;39.30;;;;;;5011153;28;20177;-73
2023/09/18 09:46:48;;;;;;;5.80;3.63;;;29.50;43.80;;;;;;5011798;28;20049;-74
2023/09/18 09:49:17;;;;;;;4.60;3.58;;;29.60;47.80;;;;;;5010676;28;20026;-74
2023/09/18 09:51:43;;;;;;;4.40;3.42;;;30.10;44.30;;;;;;5010850;28;20064;-76
2023/09/18 09:54:10;;;;;;;9.07;3.72;;;29.90;41.90;;;;;;5011904;28;20133;-74
2023/09/18 09:56:55;;;;;;;6.10;3.13;;;29.80;41.50;;;;;;5010267;28;20038;-75
2023/09/18 09:59:21;;;;;;;4.90;3.72;;;29.80;41.10;;;;;;5010093;28;20474;-74
2023/09/18 10:01:50;;;;;;;5.55;3.28;;;29.60;40.90;;;;;;5011667;28;20060;-74
2023/09/18 10:04:18;;;;;;;8.70;5.07;;;29.50;40.50;;;;;;5028509;28;20052;-71
2023/09/18 10:06:50;;;;;;;6.75;4.50;;;29.50;40.50;;;;;;5010676;28;20060;-74
2023/09/18 10:09:19;;;;;;;4.93;3.28;;;29.60;41.00;;;;;;5028559;28;20044;-74
2023/09/18 10:11:49;;;;;;;6.55;3.60;;;29.40;41.10;;;;;;5028645;28;20041;-74
2023/09/18 10:14:29;;;;;;;6.32;3.53;;;29.40;41.00;;;;;;5028899;28;20045;-75
2023/09/18 10:16:57;;;;;;;4.20;3.15;;;29.50;41.20;;;;;;5027086;28;20041;-73
2023/09/18 10:19:40;;;;;;;6.03;3.40;;;29.40;40.90;;;;;;5011974;28;20077;-74
2023/09/18 10:22:29;;;;;;;5.90;3.53;;;29.40;41.40;;;;;;5028497;28;20204;-75
2023/09/18 10:25:04;;;;;;;8.45;3.75;;;29.60;46.60;;;;;;5028252;28;20052;-73
2023/09/18 10:27:33;;;;;;;4.30;3.15;;;30.30;50.80;;;;;;5028249;28;20544;-75
2023/09/18 10:30:04;;;;;;;5.28;3.88;;;30.60;47.30;;;;;;5028202;28;20037;-74
2023/09/18 10:32:32;;;;;;;5.85;3.25;;;30.30;43.90;;;;;;5028628;28;20075;-74
2023/09/18 10:35:00;;;;;;;5.57;4.32;;;30.20;42.90;;;;;;5022154;28;20426;-76
2023/09/18 10:37:28;;;;;;;4.18;3.47;;;30.00;42.50;;;;;;5011193;28;20096;-75
2023/09/18 10:39:56;;;;;;;5.32;3.50;;;29.90;41.60;;;;;;5011310;28;20034;-76
2023/09/18 10:42:23;;;;;;;4.68;3.53;;;29.90;41.40;;;;;;5011359;28;20046;-74
2023/09/18 10:44:50;;;;;;;7.05;3.63;;;29.70;41.50;;;;;;5011389;28;20030;-76
2023/09/18 10:47:17;;;;;;;6.55;3.60;;;29.90;41.80;;;;;;5011298;28;20065;-75
2023/09/18 10:49:44;;;;;;;5.63;4.40;;;29.70;41.90;;;;;;5011309;28;20041;-74
2023/09/18 10:52:13;;;;;;;6.82;3.60;;;29.70;41.90;;;;;;5011142;28;20125;-75
2023/09/18 10:54:40;;;;;;;6.28;3.58;;;29.60;42.00;;;;;;5010220;28;20112;-74
2023/09/18 10:57:06;;;;;;;4.53;3.17;;;29.70;42.10;;;;;;5014090;28;20053;-74
2023/09/18 10:59:33;;;;;;;5.57;3.85;;;29.80;42.20;;;;;;5013811;28;20080;-76
2023/09/18 11:02:05;;;;;;;3.75;3.15;;;29.60;42.40;;;;;;5013673;28;20061;-75
2023/09/18 11:04:31;;;;;;;9.80;3.63;;;29.70;42.60;;;;;;5015306;28;20382;-75
2023/09/18 11:07:04;;;;;;;4.43;3.38;;;29.70;42.80;;;;;;5014833;28;20275;-75
2023/09/18 11:09:33;;;;;;;4.97;3.47;;;29.60;43.00;;;;;;5013577;28;20057;-75
2023/09/18 11:12:02;;;;;;;8.18;3.08;;;29.80;43.10;;;;;;5015345;28;20056;-75
2023/09/18 11:15:05;;;;;;;4.93;3.53;;;29.70;43.20;;;;;;5032142;28;20045;-77
2023/09/18 11:17:34;;;;;;;5.00;3.70;;;29.60;43.10;;;;;;5031744;28;20053;-74
2023/09/18 11:20:12;;;;;;;4.93;3.92;;;29.70;43.10;;;;;;5031919;28;20037;-75
2023/09/18 11:22:48;;;;;;;6.80;4.47;;;29.60;43.20;;;;;;5031470;28;20533;-76
2023/09/18 11:25:37;;;;;;;5.20;3.28;;;29.40;43.40;;;;;;5015015;28;20041;-74
2023/09/18 11:28:07;;;;;;;4.05;3.65;;;29.40;43.60;;;;;;5031666;28;20105;-74
2023/09/18 11:30:38;;;;;;;5.78;3.38;;;29.40;43.70;;;;;;5015058;28;20044;-75
2023/09/18 11:33:06;;;;;;;6.10;3.20;;;29.50;43.70;;;;;;5031739;28;20048;-67
2023/09/18 11:35:35;;;;;;;5.70;3.25;;;29.40;43.60;;;;;;5030485;28;20049;-72
2023/09/18 11:38:07;;;;;;;4.35;3.08;;;29.50;43.90;;;;;;4998749;28;20156;-71
2023/09/18 11:40:38;;;;;;;4.97;3.85;;;29.40;43.80;;;;;;5030795;28;20069;-73
2023/09/18 11:43:25;;;;;;;5.75;3.92;;;29.40;43.80;;;;;;5021881;28;20042;-72
2023/09/18 11:45:55;;;;;;;3.67;2.97;;;29.30;42.60;;;;;;5031513;28;20465;-72
2023/09/18 11:48:29;;;;;;;3.15;2.40;;;29.40;43.60;;;;;;5013792;28;20051;-71
2023/09/18 11:50:58;;;;;;;8.50;3.88;;;29.30;43.60;;;;;;5014012;28;20117;-70
2023/09/18 11:53:27;;;;;;;8.55;3.88;;;29.30;43.50;;;;;;5013945;28;20034;-71
2023/09/18 11:55:54;;;;;;;3.88;3.40;;;29.30;43.40;;;;;;5013853;28;20100;-72
2023/09/18 11:58:23;;;;;;;5.75;3.47;;;29.20;43.40;;;;;;5013998;28;20034;-74
2023/09/18 12:00:54;;;;;;;4.93;3.80;;;29.20;43.40;;;;;;5012612;28;20073;-73
2023/09/18 12:03:25;;;;;;;3.88;2.85;;;29.10;43.30;;;;;;5013801;28;20033;-74
2023/09/18 12:06:05;;;;;;;5.97;3.60;;;29.20;43.30;;;;;;5013653;28;20034;-69
2023/09/18 12:08:31;;;;;;;5.40;3.00;;;29.10;43.30;;;;;;4997244;28;20097;-72
2023/09/18 12:10:58;;;;;;;4.28;3.20;;;29.10;43.40;;;;;;4994269;28;20027;-72
2023/09/18 12:13:29;;;;;;;6.82;3.58;;;29.10;43.50;;;;;;4994217;28;20026;-71
2023/09/18 12:16:05;;;;;;;5.70;2.85;;;29.00;43.60;;;;;;4992633;28;20038;-73
2023/09/18 12:18:38;;;;;;;5.75;3.25;;;29.20;44.10;;;;;;4990939;28;20474;-71
2023/09/18 12:21:06;;;;;;;6.28;3.65;;;29.10;44.60;;;;;;4993670;28;20462;-69
2023/09/18 12:23:40;;;;;;;7.05;4.00;;;29.20;44.70;;;;;;4993724;28;20034;-68
2023/09/18 12:26:07;;;;;;;6.05;3.70;;;29.10;44.60;;;;;;5010608;28;20517;-73
2023/09/18 12:28:35;;;;;;;6.65;4.03;;;29.20;44.50;;;;;;5010594;28;20057;-71
2023/09/18 12:31:04;;;;;;;3.50;3.20;;;29.00;44.40;;;;;;5010799;28;20038;-70
2023/09/18 12:33:35;;;;;;;6.30;4.00;;;29.10;44.30;;;;;;5010806;28;20042;-68
2023/09/18 12:36:06;;;;;;;4.55;3.38;;;29.20;44.30;;;;;;4994536;28;20528;-70
2023/09/18 12:38:32;;;;;;;4.80;3.45;;;29.10;44.40;;;;;;5010556;28;20046;-71
2023/09/18 12:41:06;;;;;;;4.65;3.58;;;29.20;44.50;;;;;;5010643;28;20136;-72
2023/09/18 12:43:42;;;;;;;4.70;3.20;;;29.20;44.60;;;;;;5028126;28;20065;-70
2023/09/18 12:46:09;;;;;;;3.40;3.03;;;29.10;44.60;;;;;;5013831;28;20117;-71
2023/09/18 12:48:46;;;;;;;8.68;3.78;;;29.00;44.60;;;;;;5030024;28;20025;-70
2023/09/18 12:51:13;;;;;;;4.10;3.58;;;29.00;44.50;;;;;;5030262;28;20264;-71